Aviation Digital Data Service (ADDS)

Output produced by METARs form (1615 UTC 03 December 2021)
found at http://www.aviationweather.gov/metar/data/
 
VTSS 031600Z VRB02KT 9999 FEW020 BKN100 25/24 Q1014 NOSIG
VTSS 031530Z 07003KT 270V080 9999 FEW020 BKN100 25/23 Q1014 NOSIG
VTSS 031500Z VRB02KT 9999 FEW020 BKN100 26/24 Q1014 NOSIG
VTSS 031430Z 30003KT 270V080 9999 FEW020 BKN100 26/24 Q1015 NOSIG
VTSS 031400Z 00000KT 9999 FEW020 BKN100 25/25 Q1015 NOSIG
VTSS 031330Z 00000KT 9999 FEW020 BKN100 26/23 Q1014 NOSIG
VTSS 031300Z 00000KT 9999 SCT020 BKN100 26/24 Q1014 NOSIG
VTSS 031230Z VRB02KT 9999 SCT020 BKN100 26/24 Q1013 NOSIG
VTSS 031200Z 00000KT 9999 FEW020 BKN100 26/24 Q1013 NOSIG
VTSS 031130Z 00000KT 9999 FEW020 BKN100 26/24 Q1013 NOSIG
VTSS 031100Z VRB02KT 9999 SCT020 SCT028 BKN100 26/24 Q1012 NOSIG
VTSS 031030Z 08006KT 050V110 9999 SCT020 SCT028 BKN100 26/24 Q1012 NOSIG
VTSS 031000Z 06012KT 9999 -RA SCT020 SCT028 BKN100 27/23 Q1011 NOSIG
VTSS 030930Z 08009KT 9999 FEW020 BKN100 29/24 Q1011 NOSIG
VTSS 030900Z 08010KT 9999 VCSH FEW018CB BKN100 28/24 Q1011 NOSIG
VTSS 030830Z 08011KT 9999 VCSH FEW018CB SCT028 BKN100 29/24 Q1011 NOSIG
VTSS 030800Z 07014KT 9999 -RA FEW018CB SCT028 BKN100 29/24 Q1011 NOSIG
VTSS 030730Z 08012KT 9999 VCSH FEW018CB SCT028 BKN100 29/23 Q1011 NOSIG
VTSS 030700Z 08011KT 9999 FEW020 SCT028 BKN100 29/24 Q1011 NOSIG
VTSS 030630Z 05011KT 9999 FEW020 SCT028 BKN100 29/24 Q1012 NOSIG
VTSS 030600Z 03008KT 360V070 9999 FEW020 SCT028 BKN100 29/24 Q1012 NOSIG
VTSS 030530Z 05009KT 9999 SCT020 SCT028 BKN100 29/24 Q1013 NOSIG
VTSS 030500Z 06007KT 350V080 9999 SCT020 BKN100 28/24 Q1013 NOSIG
VTSS 030430Z 06006KT 270V080 9999 FEW020 BKN100 28/24 Q1013 NOSIG
VTSS 030400Z VRB06KT 9999 FEW020 BKN100 28/24 Q1014 NOSIG
VTSS 030330Z 06005KT 050V110 9999 FEW020 SCT100 28/24 Q1014 NOSIG
VTSS 030300Z 06005KT 300V080 9999 FEW020 BKN100 27/24 Q1014 NOSIG
VTSS 030230Z 05004KT 280V080 9999 FEW020 BKN100 26/23 Q1014 NOSIG
VTSS 030200Z 29003KT 260V010 9999 FEW020 BKN100 26/23 Q1014 NOSIG
VTSS 030130Z 30003KT 9999 FEW020 BKN100 25/23 Q1014 NOSIG
VTSS 030100Z 00000KT 9999 FEW020 BKN100 24/24 Q1014 NOSIG
VTSS 030030Z 06002KT 9999 FEW020 BKN100 24/24 Q1013 NOSIG
VTSS 030000Z 00000KT 9999 FEW020 BKN100 24/24 Q1013 NOSIG
VTSS 022330Z 00000KT 9999 FEW020 BKN100 24/24 Q1012 NOSIG
VTSS 022300Z 00000KT 9999 SCT020 SCT028 BKN100 24/24 Q1012 NOSIG
VTSS 022230Z 00000KT 9999 SCT020 BKN100 24/24 Q1012 NOSIG
VTSS 022200Z 00000KT 9999 FEW020 BKN100 24/24 Q1012 NOSIG
VTSS 022130Z 00000KT 9999 FEW020 BKN100 24/24 Q1012 NOSIG
VTSS 022100Z 00000KT 9999 FEW020 BKN100 24/24 Q1012 NOSIG
VTSS 022030Z 29003KT 270V040 9999 FEW020 BKN100 24/24 Q1011 NOSIG
VTSS 022000Z 29005KT 270V080 9999 FEW020 BKN100 24/24 Q1012 NOSIG
VTSS 021930Z 32004KT 270V080 9999 FEW020 BKN100 24/24 Q1012 NOSIG
VTSS 021900Z 30004KT 270V080 9999 FEW020 SCT100 24/24 Q1012 NOSIG
VTSS 021830Z 31003KT 9999 FEW020 SCT100 24/24 Q1012 NOSIG
VTSS 021800Z 00000KT 9999 FEW020 BKN100 24/24 Q1013 NOSIG
VTSS 021730Z 28003KT 9999 FEW020 BKN100 24/24 Q1013 NOSIG
VTSS 021700Z 29002KT 9999 FEW020 BKN100 24/24 Q1013 NOSIG
VTSS 021630Z 00000KT 9999 FEW020 BKN100 25/25 Q1013 NOSIG
VTSS 021600Z 00000KT 9999 FEW020 BKN100 24/24 Q1014 NOSIG
VTSS 021530Z VRB03KT 9999 FEW020 BKN100 25/25 Q1014 NOSIG
TAF VTSS 031100Z 0312/0412 05003KT 9999 SCT020 BKN100 
     TEMPO 0312/0315 4000 RA 
     PROB30 
     TEMPO 0406/0412 VRB15G25KT 4000 RA